createdAt,value
2018-02-08T00:02:12.487Z,41.63
2018-02-08T00:04:39.841Z,37.70
2018-02-08T00:07:07.224Z,38.13
2018-02-08T00:09:34.579Z,39.37
2018-02-08T00:12:01.951Z,38.17
2018-02-08T00:14:29.291Z,39.83
2018-02-08T00:16:56.673Z,37.50
2018-02-08T00:19:24.028Z,37.77
2018-02-08T00:21:51.427Z,38.17
2018-02-08T00:24:18.771Z,36.87
2018-02-08T00:26:46.148Z,36.83
2018-02-08T00:29:13.533Z,37.83
2018-02-08T00:31:40.893Z,39.17
2018-02-08T00:34:08.246Z,40.70
2018-02-08T00:36:35.592Z,37.60
2018-02-08T00:39:02.973Z,38.37
2018-02-08T00:41:30.353Z,38.50
2018-02-08T00:43:57.753Z,41.10
2018-02-08T00:46:25.099Z,41.27
2018-02-08T00:48:52.468Z,37.33
2018-02-08T00:51:19.827Z,38.97
2018-02-08T00:53:47.207Z,39.47
2018-02-08T00:56:14.556Z,39.07
2018-02-08T00:58:41.947Z,36.30
2018-02-08T01:01:09.296Z,37.80
2018-02-08T01:03:36.662Z,38.60
2018-02-08T01:06:04.091Z,38.13
2018-02-08T01:08:31.455Z,37.93
2018-02-08T01:10:58.794Z,41.20
2018-02-08T01:13:26.202Z,38.33
2018-02-08T01:15:53.555Z,38.93
2018-02-08T01:18:20.952Z,39.30
2018-02-08T01:20:48.325Z,39.70
2018-02-08T01:23:15.703Z,38.33
2018-02-08T01:25:43.070Z,40.63
2018-02-08T01:28:10.443Z,39.90
2018-02-08T01:30:37.845Z,42.93
2018-02-08T01:33:05.200Z,41.37
2018-02-08T01:35:32.588Z,39.17
2018-02-08T01:37:59.934Z,43.03
2018-02-08T01:40:27.326Z,40.47
2018-02-08T01:42:54.672Z,39.57
2018-02-08T01:45:22.094Z,37.50
2018-02-08T01:47:49.444Z,36.70
2018-02-08T01:50:16.818Z,40.20
2018-02-08T01:52:44.187Z,37.97
2018-02-08T01:55:11.580Z,40.10
2018-02-08T01:57:38.926Z,39.47
2018-02-08T02:00:06.292Z,41.40
2018-02-08T02:02:33.687Z,40.60
2018-02-08T02:05:01.043Z,40.90
2018-02-08T02:07:28.439Z,41.30
2018-02-08T02:09:55.785Z,40.57
2018-02-08T02:12:23.155Z,40.20
2018-02-08T02:14:50.515Z,39.40
2018-02-08T02:17:17.914Z,39.67
2018-02-08T02:19:45.299Z,39.10
2018-02-08T02:22:12.712Z,41.97
2018-02-08T02:24:40.087Z,41.33
2018-02-08T02:27:07.431Z,38.83
2018-02-08T02:29:34.815Z,40.23
2018-02-08T02:32:02.182Z,40.33
2018-02-08T02:34:29.555Z,40.10
2018-02-08T02:36:56.936Z,40.67
2018-02-08T02:39:24.330Z,39.97
2018-02-08T02:41:51.683Z,41.17
2018-02-08T02:44:19.021Z,39.90
2018-02-08T02:46:46.380Z,39.70
2018-02-08T02:49:13.723Z,38.07
2018-02-08T02:51:41.106Z,41.10
2018-02-08T02:54:08.455Z,40.50
2018-02-08T02:56:35.814Z,40.60
2018-02-08T02:59:03.157Z,41.70
2018-02-08T03:01:30.518Z,40.40
2018-02-08T03:03:57.871Z,41.00
2018-02-08T03:06:25.222Z,40.37
2018-02-08T03:08:52.568Z,40.03
2018-02-08T03:11:19.923Z,40.43
2018-02-08T03:13:47.249Z,40.07
2018-02-08T03:16:14.615Z,39.93
2018-02-08T03:18:41.986Z,39.67
2018-02-08T03:21:09.330Z,40.87
2018-02-08T03:23:36.689Z,41.50
2018-02-08T03:26:04.040Z,39.40
2018-02-08T03:28:31.397Z,39.50
2018-02-08T03:31:04.379Z,39.93
2018-02-08T03:33:31.751Z,41.53
2018-02-08T03:35:59.098Z,40.03
2018-02-08T03:38:26.495Z,38.43
2018-02-08T03:40:53.839Z,40.20
2018-02-08T03:43:21.207Z,40.00
2018-02-08T03:45:48.540Z,40.57
2018-02-08T03:48:15.951Z,42.30
2018-02-08T03:50:43.330Z,41.47
2018-02-08T03:53:10.663Z,40.83
2018-02-08T03:55:38.025Z,40.03
2018-02-08T03:58:05.379Z,41.17
2018-02-08T04:00:32.748Z,41.23
2018-02-08T04:03:00.091Z,41.93
2018-02-08T04:05:27.458Z,40.33
2018-02-08T04:07:54.795Z,41.23
2018-02-08T04:10:22.165Z,39.43
2018-02-08T04:12:49.493Z,40.03
2018-02-08T04:15:16.839Z,39.10
2018-02-08T04:17:44.199Z,41.60
2018-02-08T04:20:11.532Z,40.73
2018-02-08T04:22:38.973Z,41.73
2018-02-08T04:25:06.290Z,39.07
2018-02-08T04:27:33.651Z,42.00
2018-02-08T04:30:00.981Z,40.87
2018-02-08T04:32:28.355Z,43.40
2018-02-08T04:34:55.706Z,42.80
2018-02-08T04:37:23.076Z,40.23
2018-02-08T04:39:56.407Z,37.80
2018-02-08T04:42:28.633Z,38.97
2018-02-08T04:45:01.949Z,42.53
2018-02-08T04:47:35.150Z,40.10
2018-02-08T04:50:02.486Z,43.27
2018-02-08T04:52:29.858Z,39.27
2018-02-08T04:54:57.226Z,40.07
2018-02-08T04:57:24.565Z,40.40
2018-02-08T04:59:51.927Z,41.90
2018-02-08T05:02:19.263Z,41.57
2018-02-08T05:04:46.630Z,38.50
2018-02-08T05:07:13.966Z,39.80
2018-02-08T05:09:41.332Z,39.50
2018-02-08T05:12:08.671Z,39.50
2018-02-08T05:14:36.018Z,40.30
2018-02-08T05:17:03.388Z,41.10
2018-02-08T05:19:30.732Z,42.00
2018-02-08T05:21:58.115Z,41.50
2018-02-08T05:24:25.473Z,40.50
2018-02-08T05:26:52.835Z,41.40
2018-02-08T05:29:20.169Z,40.23
2018-02-08T05:31:47.534Z,39.23
2018-02-08T05:34:14.864Z,41.33
2018-02-08T05:36:42.223Z,39.13
2018-02-08T05:39:09.578Z,41.60
2018-02-08T05:41:37.000Z,38.50
2018-02-08T05:44:04.342Z,39.90
2018-02-08T05:46:31.674Z,42.20
2018-02-08T05:48:59.095Z,37.80
2018-02-08T05:51:26.405Z,40.87
2018-02-08T05:53:53.772Z,40.57
2018-02-08T05:56:21.114Z,40.90
2018-02-08T05:58:48.474Z,41.40
2018-02-08T06:01:15.818Z,43.13
2018-02-08T06:03:43.171Z,37.53
2018-02-08T06:06:10.530Z,41.17
2018-02-08T06:08:37.869Z,42.13
2018-02-08T06:11:05.233Z,41.63
2018-02-08T06:13:32.577Z,41.63
2018-02-08T06:15:59.950Z,43.00
2018-02-08T06:18:27.287Z,44.43
2018-02-08T06:20:54.654Z,42.23
2018-02-08T06:23:22.007Z,43.10
2018-02-08T06:25:49.365Z,42.50
2018-02-08T06:28:16.703Z,43.50
2018-02-08T06:30:44.066Z,43.70
2018-02-08T06:33:11.405Z,45.63
2018-02-08T06:35:38.738Z,41.83
2018-02-08T06:38:06.101Z,44.60
2018-02-08T06:40:33.435Z,44.03
2018-02-08T06:43:00.803Z,43.10
2018-02-08T06:45:28.145Z,42.63
2018-02-08T06:47:55.545Z,40.30
2018-02-08T06:50:22.905Z,42.50
2018-02-08T06:52:50.255Z,44.87
2018-02-08T06:55:17.613Z,44.37
2018-02-08T06:57:44.952Z,43.57
2018-02-08T07:00:12.318Z,43.27
2018-02-08T07:02:39.652Z,40.93
2018-02-08T07:05:07.017Z,42.50
2018-02-08T07:07:34.348Z,43.50
2018-02-08T07:10:01.713Z,43.33
2018-02-08T07:12:29.041Z,41.30
2018-02-08T07:14:56.406Z,40.80
2018-02-08T07:17:23.751Z,42.90
2018-02-08T07:19:51.095Z,44.13
2018-02-08T07:22:18.453Z,45.80
2018-02-08T07:24:45.794Z,44.80
2018-02-08T07:27:13.150Z,44.37
2018-02-08T07:29:40.495Z,44.30
2018-02-08T07:32:07.894Z,40.90
2018-02-08T07:34:35.229Z,39.40
2018-02-08T07:37:02.581Z,43.10
2018-02-08T07:39:29.943Z,43.03
2018-02-08T07:41:57.282Z,41.50
2018-02-08T07:44:24.638Z,42.23
2018-02-08T07:46:51.975Z,43.43
2018-02-08T07:49:19.334Z,39.70
2018-02-08T07:51:46.670Z,41.33
2018-02-08T07:54:14.046Z,44.60
2018-02-08T07:56:41.381Z,44.53
2018-02-08T07:59:08.717Z,42.00
2018-02-08T08:01:36.070Z,43.30
2018-02-08T08:04:03.406Z,39.17
2018-02-08T08:06:30.772Z,40.30
2018-02-08T08:08:58.110Z,44.00
2018-02-08T08:11:25.471Z,42.93
2018-02-08T08:13:53.563Z,41.30
2018-02-08T08:16:20.904Z,43.90
2018-02-08T08:18:48.271Z,42.47
2018-02-08T08:21:15.616Z,42.57
2018-02-08T08:23:42.973Z,45.20
2018-02-08T08:26:10.310Z,41.60
2018-02-08T08:28:37.672Z,43.20
2018-02-08T08:31:05.006Z,42.43
2018-02-08T08:33:32.379Z,41.30
2018-02-08T08:35:59.738Z,43.80
2018-02-08T08:38:27.205Z,42.07
2018-02-08T08:40:54.542Z,41.73
2018-02-08T08:43:21.879Z,42.27
2018-02-08T08:45:49.242Z,44.80
2018-02-08T08:48:16.573Z,43.40
2018-02-08T08:50:43.938Z,43.30
2018-02-08T08:53:11.298Z,45.57
2018-02-08T08:55:38.669Z,44.13
2018-02-08T08:58:06.010Z,44.00
2018-02-08T09:00:33.340Z,45.33
2018-02-08T09:03:00.705Z,45.20
2018-02-08T09:05:28.046Z,50.07
2018-02-08T09:07:55.426Z,42.23
2018-02-08T09:10:22.756Z,45.03
2018-02-08T09:12:50.124Z,42.97
2018-02-08T09:15:17.458Z,43.90
2018-02-08T09:17:44.793Z,42.30
2018-02-08T09:20:12.157Z,44.53
2018-02-08T09:22:39.547Z,42.70
2018-02-08T09:25:06.894Z,42.50
2018-02-08T09:27:34.234Z,43.97
2018-02-08T09:30:01.631Z,44.07
2018-02-08T09:32:28.968Z,45.27
2018-02-08T09:34:56.467Z,44.23
2018-02-08T09:37:23.842Z,44.13
2018-02-08T09:39:51.178Z,45.57
2018-02-08T09:42:18.551Z,45.20
2018-02-08T09:44:45.888Z,43.63
2018-02-08T09:47:13.248Z,44.50
2018-02-08T09:49:40.590Z,44.87
2018-02-08T09:52:07.957Z,47.40
2018-02-08T09:54:35.304Z,45.30
2018-02-08T09:57:02.666Z,47.00
2018-02-08T09:59:30.006Z,45.90
2018-02-08T10:01:57.370Z,42.83
2018-02-08T10:04:24.703Z,43.73
2018-02-08T10:06:52.045Z,42.40
2018-02-08T10:09:19.417Z,44.60
2018-02-08T10:11:46.760Z,43.77
2018-02-08T10:14:14.118Z,44.40
2018-02-08T10:16:41.459Z,43.57
2018-02-08T10:19:08.826Z,45.50
2018-02-08T10:21:36.160Z,43.13
2018-02-08T10:24:03.566Z,46.07
2018-02-08T10:26:30.898Z,44.70
2018-02-08T10:28:58.235Z,45.90
2018-02-08T10:31:25.607Z,44.53
2018-02-08T10:33:52.961Z,44.30
2018-02-08T10:36:20.333Z,47.00
2018-02-08T10:38:47.670Z,49.10
2018-02-08T10:41:15.033Z,46.30
2018-02-08T10:43:42.368Z,46.07
2018-02-08T10:46:09.737Z,47.70
2018-02-08T10:48:37.081Z,45.30
2018-02-08T10:51:04.420Z,43.00
2018-02-08T10:53:31.781Z,48.67
2018-02-08T10:55:59.414Z,42.83
2018-02-08T10:58:26.800Z,45.87
2018-02-08T11:00:54.138Z,44.63
2018-02-08T11:03:21.506Z,49.10
2018-02-08T11:05:48.841Z,44.13
2018-02-08T11:08:16.224Z,47.67
2018-02-08T11:10:43.562Z,46.60
2018-02-08T11:13:10.895Z,48.57
2018-02-08T11:15:38.255Z,46.37
2018-02-08T11:18:05.649Z,46.50
2018-02-08T11:20:33.002Z,48.07
2018-02-08T11:23:00.336Z,48.33
2018-02-08T11:25:27.704Z,43.77
2018-02-08T11:27:55.042Z,44.83
2018-02-08T11:30:22.403Z,43.03
2018-02-08T11:32:49.743Z,46.80
2018-02-08T11:35:17.079Z,45.63
2018-02-08T11:37:44.448Z,44.17
2018-02-08T11:40:11.787Z,44.90
2018-02-08T11:42:39.188Z,48.20
2018-02-08T11:45:06.517Z,46.17
2018-02-08T11:47:33.886Z,46.13
2018-02-08T11:50:01.223Z,45.23
2018-02-08T11:52:28.598Z,44.10
2018-02-08T11:54:55.931Z,47.10
2018-02-08T11:57:23.271Z,48.43
2018-02-08T11:59:50.624Z,48.07
2018-02-08T12:02:17.967Z,47.90
2018-02-08T12:04:45.327Z,47.63
2018-02-08T12:07:12.668Z,48.37
2018-02-08T12:09:40.033Z,49.83
2018-02-08T12:12:07.410Z,50.27
2018-02-08T12:14:34.758Z,53.17
2018-02-08T12:17:02.093Z,52.80
2018-02-08T12:19:29.497Z,48.03
2018-02-08T12:21:56.849Z,48.77
2018-02-08T12:24:24.181Z,46.37
2018-02-08T12:26:51.561Z,46.60
2018-02-08T12:29:18.902Z,48.90
2018-02-08T12:31:46.267Z,49.50
2018-02-08T12:34:13.620Z,47.90
2018-02-08T12:36:40.976Z,48.10
2018-02-08T12:39:08.319Z,49.80
2018-02-08T12:41:36.554Z,49.90
2018-02-08T12:44:03.890Z,47.63
2018-02-08T12:46:31.289Z,49.23
2018-02-08T12:48:58.630Z,46.93
2018-02-08T12:51:25.988Z,51.50
2018-02-08T12:53:53.358Z,46.00
2018-02-08T12:56:20.702Z,51.00
2018-02-08T12:58:48.061Z,47.93
2018-02-08T13:01:15.407Z,46.60
2018-02-08T13:03:42.775Z,50.87
2018-02-08T13:06:10.111Z,48.43
2018-02-08T13:08:37.444Z,47.50
2018-02-08T13:11:04.802Z,49.53
2018-02-08T13:13:32.137Z,46.30
2018-02-08T13:15:59.498Z,48.27
2018-02-08T13:18:26.840Z,51.50
2018-02-08T13:20:54.206Z,49.50
2018-02-08T13:23:21.542Z,50.07
2018-02-08T13:25:48.911Z,46.10
2018-02-08T13:28:16.250Z,46.70
2018-02-08T13:30:43.619Z,47.13
2018-02-08T13:33:10.950Z,47.90
2018-02-08T13:35:38.308Z,46.63
2018-02-08T13:38:05.676Z,45.87
2018-02-08T13:40:37.034Z,45.93
2018-02-08T13:43:04.379Z,43.70
2018-02-08T13:48:25.164Z,48.87
2018-02-08T13:50:53.606Z,47.53
2018-02-08T13:53:41.764Z,46.83
2018-02-08T13:56:11.656Z,49.27
2018-02-08T13:58:55.646Z,48.23
2018-02-08T14:01:22.986Z,51.60
2018-02-08T14:03:50.346Z,51.50
2018-02-08T14:06:17.701Z,49.27
2018-02-08T14:08:45.090Z,49.93
2018-02-08T14:11:12.418Z,51.60
2018-02-08T14:13:39.787Z,50.70
2018-02-08T14:16:07.124Z,52.50
2018-02-08T14:18:34.463Z,50.93
2018-02-08T14:21:01.820Z,50.60
2018-02-08T14:23:29.150Z,50.67
2018-02-08T14:25:56.514Z,50.30
2018-02-08T14:28:23.847Z,48.80
2018-02-08T14:30:51.251Z,50.77
2018-02-08T14:33:18.586Z,49.77
2018-02-08T14:35:45.952Z,48.97
2018-02-08T14:38:13.286Z,47.40
2018-02-08T14:40:40.617Z,48.90
2018-02-08T14:43:07.974Z,50.70
2018-02-08T14:45:35.312Z,49.43
2018-02-08T14:48:02.686Z,47.07
2018-02-08T14:50:30.026Z,46.67
2018-02-08T14:52:57.386Z,51.60
2018-02-08T14:55:24.729Z,51.03
2018-02-08T14:57:52.087Z,51.07
2018-02-08T15:00:19.430Z,48.03
2018-02-08T15:02:46.829Z,51.70
2018-02-08T15:05:14.164Z,49.17
2018-02-08T15:07:41.506Z,51.10
2018-02-08T15:10:08.871Z,50.97
2018-02-08T15:12:36.227Z,49.80
2018-02-08T15:15:03.591Z,48.43
2018-02-08T15:17:30.927Z,49.73
2018-02-08T15:19:58.290Z,50.63
2018-02-08T15:22:25.642Z,48.90
2018-02-08T15:24:53.084Z,48.93
2018-02-08T15:27:20.456Z,50.50
2018-02-08T15:29:47.795Z,48.83
2018-02-08T15:32:15.156Z,46.87
2018-02-08T15:34:42.496Z,49.90
2018-02-08T15:37:09.856Z,49.23
2018-02-08T15:39:37.190Z,52.07
2018-02-08T15:42:04.554Z,49.27
2018-02-08T15:44:31.901Z,51.63
2018-02-08T15:46:59.258Z,50.73
2018-02-08T15:49:26.610Z,61.17
2018-02-08T15:51:54.011Z,53.33
2018-02-08T15:54:21.354Z,53.60
2018-02-08T15:56:48.699Z,55.53
2018-02-08T15:59:16.057Z,55.57
2018-02-08T16:01:43.395Z,53.10
2018-02-08T16:04:10.753Z,51.63
2018-02-08T16:06:38.094Z,51.17
2018-02-08T16:09:05.473Z,53.87
2018-02-08T16:11:32.814Z,56.67
2018-02-08T16:14:00.154Z,54.37
2018-02-08T16:16:27.518Z,52.40
2018-02-08T16:18:54.859Z,50.87
2018-02-08T16:21:22.233Z,52.73
2018-02-08T16:23:49.560Z,52.83
2018-02-08T16:26:16.924Z,54.33
2018-02-08T16:28:44.266Z,54.30
2018-02-08T16:31:11.631Z,53.63
2018-02-08T16:33:38.967Z,53.87
2018-02-08T16:36:06.366Z,54.07
2018-02-08T16:38:34.145Z,54.20
2018-02-08T16:41:02.012Z,59.07
2018-02-08T16:43:29.982Z,57.40
2018-02-08T16:45:58.560Z,56.70
2018-02-08T16:48:27.486Z,55.07
2018-02-08T16:50:54.958Z,54.73
2018-02-08T16:53:22.319Z,53.17
2018-02-08T16:55:49.664Z,53.60
2018-02-08T16:58:17.044Z,56.80
2018-02-08T17:00:44.399Z,80.07
2018-02-08T17:03:11.761Z,57.60
2018-02-08T17:05:39.100Z,57.30
2018-02-08T17:08:06.514Z,57.50
2018-02-08T17:10:34.094Z,52.67
2018-02-08T17:13:01.478Z,55.33
2018-02-08T17:15:28.841Z,54.37
2018-02-08T17:17:56.185Z,52.53
2018-02-08T17:20:23.559Z,57.53
2018-02-08T17:22:50.939Z,56.67
2018-02-08T17:25:18.310Z,57.17
2018-02-08T17:27:45.655Z,52.03
2018-02-08T17:30:13.014Z,56.83
2018-02-08T17:32:40.357Z,53.20
2018-02-08T17:35:07.730Z,55.50
2018-02-08T17:37:35.082Z,51.63
2018-02-08T17:40:02.435Z,55.80
2018-02-08T17:42:29.795Z,51.20
2018-02-08T17:44:57.129Z,51.87
2018-02-08T17:47:24.499Z,51.60
2018-02-08T17:49:51.844Z,54.07
2018-02-08T17:52:19.238Z,50.40
2018-02-08T17:54:46.761Z,51.90
2018-02-08T17:57:14.208Z,50.70
2018-02-08T17:59:41.624Z,51.73
2018-02-08T18:02:09.297Z,52.10
2018-02-08T18:04:38.046Z,53.00
2018-02-08T18:07:06.083Z,51.97
2018-02-08T18:09:33.564Z,54.27
2018-02-08T18:12:00.923Z,49.47
2018-02-08T18:14:28.294Z,49.80
2018-02-08T18:16:55.634Z,52.80
2018-02-08T18:19:23.023Z,52.50
2018-02-08T18:21:50.357Z,52.23
2018-02-08T18:24:17.732Z,52.20
2018-02-08T18:26:45.067Z,53.30
2018-02-08T18:29:12.476Z,53.67
2018-02-08T18:31:39.823Z,53.30
2018-02-08T18:34:07.163Z,51.87
2018-02-08T18:36:34.530Z,54.13
2018-02-08T18:39:01.867Z,58.73
2018-02-08T18:41:29.261Z,62.47
2018-02-08T18:43:56.603Z,53.53
2018-02-08T18:46:23.963Z,51.70
2018-02-08T18:48:51.301Z,52.27
2018-02-08T18:51:18.637Z,53.30
2018-02-08T18:53:46.007Z,51.83
2018-02-08T18:56:13.389Z,51.53
2018-02-08T18:58:40.758Z,54.70
2018-02-08T19:01:08.106Z,52.13
2018-02-08T19:03:35.523Z,55.53
2018-02-08T19:06:02.862Z,50.00
2018-02-08T19:08:30.198Z,54.47
2018-02-08T19:10:57.566Z,55.57
2018-02-08T19:13:24.902Z,52.87
2018-02-08T19:15:52.257Z,52.53
2018-02-08T19:18:19.599Z,52.50
2018-02-08T19:20:46.967Z,56.30
2018-02-08T19:23:14.319Z,58.17
2018-02-08T19:25:41.683Z,59.60
2018-02-08T19:28:09.022Z,60.57
2018-02-08T19:30:36.389Z,74.90
2018-02-08T19:33:03.739Z,62.17
2018-02-08T19:35:31.140Z,59.87
2018-02-08T19:37:58.473Z,62.27
2018-02-08T19:40:25.814Z,62.37
2018-02-08T19:42:53.191Z,59.27
2018-02-08T19:45:20.531Z,59.10
2018-02-08T19:47:47.896Z,62.60
2018-02-08T19:50:15.253Z,59.43
2018-02-08T19:52:42.625Z,60.57
2018-02-08T19:55:09.970Z,59.93
2018-02-08T19:57:37.355Z,59.37
2018-02-08T20:00:04.704Z,58.53
2018-02-08T20:02:32.053Z,56.83
2018-02-08T20:04:59.414Z,53.13
2018-02-08T20:07:26.754Z,54.33
2018-02-08T20:09:54.122Z,56.73
2018-02-08T20:12:21.457Z,64.40
2018-02-08T20:14:50.515Z,69.00
2018-02-08T20:17:17.858Z,54.23
2018-02-08T20:19:45.227Z,76.80
2018-02-08T20:22:12.582Z,118.47
2018-02-08T20:24:39.924Z,66.23
2018-02-08T20:27:07.306Z,60.30
2018-02-08T20:29:34.649Z,58.90
2018-02-08T20:32:02.037Z,56.97
2018-02-08T20:34:29.378Z,53.37
2018-02-08T20:36:57.307Z,53.17
2018-02-08T20:39:24.646Z,53.83
2018-02-08T20:41:52.033Z,50.33
2018-02-08T20:44:19.385Z,55.23
2018-02-08T20:46:46.782Z,54.30
2018-02-08T20:49:14.120Z,53.47
2018-02-08T20:51:41.619Z,55.53
2018-02-08T20:54:08.992Z,59.30
2018-02-08T20:56:36.342Z,59.47
2018-02-08T20:59:03.709Z,55.03
2018-02-08T21:01:31.048Z,55.77
2018-02-08T21:03:58.418Z,59.27
2018-02-08T21:06:25.761Z,59.37
2018-02-08T21:08:53.126Z,59.70
2018-02-08T21:11:20.469Z,57.20
2018-02-08T21:13:47.834Z,58.47
2018-02-08T21:16:15.178Z,57.30
2018-02-08T21:18:42.522Z,55.27
2018-02-08T21:21:10.210Z,57.00
2018-02-08T21:23:37.546Z,54.87
2018-02-08T21:26:04.906Z,67.70
2018-02-08T21:28:32.250Z,71.37
2018-02-08T21:30:59.621Z,79.83
2018-02-08T21:33:26.960Z,71.83
2018-02-08T21:35:54.330Z,71.30
2018-02-08T21:38:21.678Z,67.00
2018-02-08T21:40:49.049Z,69.33
2018-02-08T21:43:16.395Z,66.63
2018-02-08T21:45:43.736Z,64.57
2018-02-08T21:48:11.101Z,71.67
2018-02-08T21:50:38.454Z,85.50
2018-02-08T21:53:05.833Z,83.13
2018-02-08T21:55:33.394Z,75.47
2018-02-08T21:58:00.784Z,67.63
2018-02-08T22:00:28.135Z,70.23
2018-02-08T22:02:55.478Z,70.70
2018-02-08T22:05:22.845Z,68.20
2018-02-08T22:07:50.191Z,68.03
2018-02-08T22:10:17.556Z,65.53
2018-02-08T22:12:44.902Z,61.50
2018-02-08T22:15:12.278Z,60.27
2018-02-08T22:17:39.620Z,67.57
2018-02-08T22:20:06.995Z,64.20
2018-02-08T22:22:34.347Z,58.33
2018-02-08T22:25:01.782Z,61.87
2018-02-08T22:27:29.120Z,61.83
2018-02-08T22:29:56.466Z,56.87
2018-02-08T22:32:24.224Z,59.10
2018-02-08T22:34:51.584Z,58.13
2018-02-08T22:37:19.002Z,54.70
2018-02-08T22:39:46.337Z,58.40
2018-02-08T22:42:13.712Z,58.07
2018-02-08T22:44:41.048Z,55.47
2018-02-08T22:47:10.037Z,56.88
2018-02-08T22:49:37.456Z,58.30
2018-02-08T22:52:04.797Z,53.30
2018-02-08T22:54:32.178Z,51.40
2018-02-08T22:56:59.511Z,53.20
2018-02-08T22:59:26.893Z,51.63
2018-02-08T23:01:54.233Z,51.07
2018-02-08T23:04:21.641Z,50.17
2018-02-08T23:06:48.985Z,48.70
2018-02-08T23:09:16.386Z,51.27
2018-02-08T23:11:43.721Z,52.07
2018-02-08T23:14:11.062Z,52.87
2018-02-08T23:16:38.424Z,50.70
2018-02-08T23:19:05.767Z,49.93
2018-02-08T23:21:33.127Z,52.97
2018-02-08T23:24:00.466Z,51.33
2018-02-08T23:26:27.826Z,51.53
2018-02-08T23:28:55.202Z,52.90
2018-02-08T23:31:22.534Z,49.63
2018-02-08T23:33:49.895Z,48.90
2018-02-08T23:36:17.233Z,53.53
2018-02-08T23:38:44.595Z,55.67
2018-02-08T23:41:11.930Z,49.30
2018-02-08T23:43:39.326Z,51.47
2018-02-08T23:46:06.667Z,51.97
2018-02-08T23:48:34.028Z,52.10
2018-02-08T23:51:01.360Z,52.33
2018-02-08T23:53:28.717Z,51.47
2018-02-08T23:55:56.049Z,48.13
2018-02-08T23:58:23.418Z,50.60
